sensor_id;sensor_type;location;lat;lon;timestamp;P1;durP1;ratioP1;P2;durP2;ratioP2
57313;SDS011;53202;50.976;18.216;2023-04-16T00:02:56;50.60;;;25.50;;
57313;SDS011;53202;50.976;18.216;2023-04-16T00:12:41;26.50;;;19.30;;
57313;SDS011;53202;50.976;18.216;2023-04-16T00:22:24;27.20;;;21.70;;
57313;SDS011;53202;50.976;18.216;2023-04-16T00:32:06;48.50;;;21.90;;
57313;SDS011;53202;50.976;18.216;2023-04-16T00:41:48;28.90;;;20.90;;
57313;SDS011;53202;50.976;18.216;2023-04-16T00:51:32;27.70;;;21.60;;
57313;SDS011;53202;50.976;18.216;2023-04-16T01:01:16;32.00;;;23.70;;
57313;SDS011;53202;50.976;18.216;2023-04-16T01:10:59;24.10;;;15.40;;
57313;SDS011;53202;50.976;18.216;2023-04-16T01:20:42;21.30;;;16.60;;
57313;SDS011;53202;50.976;18.216;2023-04-16T01:30:24;24.40;;;16.60;;
57313;SDS011;53202;50.976;18.216;2023-04-16T01:40:08;29.40;;;23.10;;
57313;SDS011;53202;50.976;18.216;2023-04-16T01:49:51;35.60;;;25.90;;
57313;SDS011;53202;50.976;18.216;2023-04-16T01:59:35;41.60;;;29.70;;
57313;SDS011;53202;50.976;18.216;2023-04-16T02:09:18;43.00;;;29.50;;
57313;SDS011;53202;50.976;18.216;2023-04-16T02:19:00;61.50;;;32.80;;
57313;SDS011;53202;50.976;18.216;2023-04-16T02:28:44;80.60;;;36.80;;
57313;SDS011;53202;50.976;18.216;2023-04-16T02:38:27;34.10;;;15.60;;
57313;SDS011;53202;50.976;18.216;2023-04-16T02:48:10;88.10;;;38.90;;
57313;SDS011;53202;50.976;18.216;2023-04-16T02:57:54;54.60;;;24.30;;
57313;SDS011;53202;50.976;18.216;2023-04-16T03:14:55;83.20;;;43.10;;
57313;SDS011;53202;50.976;18.216;2023-04-16T03:24:40;79.90;;;32.90;;
57313;SDS011;53202;50.976;18.216;2023-04-16T03:34:23;68.00;;;36.90;;
57313;SDS011;53202;50.976;18.216;2023-04-16T03:44:06;28.80;;;18.80;;
57313;SDS011;53202;50.976;18.216;2023-04-16T03:53:48;37.60;;;25.90;;
57313;SDS011;53202;50.976;18.216;2023-04-16T04:03:31;41.30;;;23.00;;
57313;SDS011;53202;50.976;18.216;2023-04-16T04:13:15;43.50;;;28.00;;
57313;SDS011;53202;50.976;18.216;2023-04-16T04:22:57;43.20;;;31.00;;
57313;SDS011;53202;50.976;18.216;2023-04-16T04:32:40;45.20;;;29.60;;
57313;SDS011;53202;50.976;18.216;2023-04-16T04:42:23;37.50;;;25.70;;
57313;SDS011;53202;50.976;18.216;2023-04-16T04:52:06;48.80;;;26.00;;
57313;SDS011;53202;50.976;18.216;2023-04-16T05:01:49;37.30;;;26.20;;
57313;SDS011;53202;50.976;18.216;2023-04-16T05:11:36;30.30;;;21.10;;
57313;SDS011;53202;50.976;18.216;2023-04-16T05:21:20;33.30;;;26.00;;
57313;SDS011;53202;50.976;18.216;2023-04-16T05:31:03;54.60;;;29.70;;
57313;SDS011;53202;50.976;18.216;2023-04-16T05:40:45;42.00;;;19.90;;
57313;SDS011;53202;50.976;18.216;2023-04-16T05:50:30;22.60;;;16.80;;
57313;SDS011;53202;50.976;18.216;2023-04-16T06:00:13;24.80;;;17.40;;
57313;SDS011;53202;50.976;18.216;2023-04-16T06:09:56;31.30;;;21.90;;
57313;SDS011;53202;50.976;18.216;2023-04-16T06:19:39;24.10;;;18.60;;
57313;SDS011;53202;50.976;18.216;2023-04-16T06:29:22;27.10;;;22.00;;
57313;SDS011;53202;50.976;18.216;2023-04-16T06:39:04;30.00;;;22.40;;
57313;SDS011;53202;50.976;18.216;2023-04-16T06:48:47;24.50;;;19.50;;
57313;SDS011;53202;50.976;18.216;2023-04-16T06:58:30;24.40;;;17.10;;
57313;SDS011;53202;50.976;18.216;2023-04-16T07:08:13;27.50;;;17.90;;
57313;SDS011;53202;50.976;18.216;2023-04-16T07:17:56;21.40;;;15.90;;
57313;SDS011;53202;50.976;18.216;2023-04-16T07:27:39;20.30;;;18.20;;
57313;SDS011;53202;50.976;18.216;2023-04-16T07:37:21;22.20;;;17.80;;
57313;SDS011;53202;50.976;18.216;2023-04-16T07:47:04;42.60;;;15.60;;
57313;SDS011;53202;50.976;18.216;2023-04-16T07:56:46;20.70;;;17.80;;
57313;SDS011;53202;50.976;18.216;2023-04-16T08:06:29;28.70;;;18.50;;
57313;SDS011;53202;50.976;18.216;2023-04-16T08:16:12;23.30;;;18.40;;
57313;SDS011;53202;50.976;18.216;2023-04-16T08:25:55;27.60;;;18.80;;
57313;SDS011;53202;50.976;18.216;2023-04-16T08:35:38;26.20;;;18.40;;
57313;SDS011;53202;50.976;18.216;2023-04-16T08:45:24;25.70;;;18.40;;
57313;SDS011;53202;50.976;18.216;2023-04-16T08:55:14;19.80;;;14.90;;
57313;SDS011;53202;50.976;18.216;2023-04-16T09:04:57;17.80;;;12.20;;
57313;SDS011;53202;50.976;18.216;2023-04-16T09:14:41;19.90;;;16.70;;
57313;SDS011;53202;50.976;18.216;2023-04-16T09:24:25;21.40;;;14.40;;
57313;SDS011;53202;50.976;18.216;2023-04-16T09:41:27;32.80;;;12.00;;
57313;SDS011;53202;50.976;18.216;2023-04-16T09:51:11;18.60;;;14.50;;
57313;SDS011;53202;50.976;18.216;2023-04-16T10:00:54;23.10;;;17.40;;
57313;SDS011;53202;50.976;18.216;2023-04-16T10:10:37;20.40;;;18.30;;
57313;SDS011;53202;50.976;18.216;2023-04-16T10:20:19;12.10;;;9.40;;
57313;SDS011;53202;50.976;18.216;2023-04-16T10:30:02;10.60;;;9.00;;
57313;SDS011;53202;50.976;18.216;2023-04-16T10:39:46;11.70;;;10.50;;
57313;SDS011;53202;50.976;18.216;2023-04-16T10:49:29;16.30;;;10.00;;
57313;SDS011;53202;50.976;18.216;2023-04-16T10:59:16;14.60;;;10.50;;
57313;SDS011;53202;50.976;18.216;2023-04-16T11:08:59;14.60;;;11.60;;
57313;SDS011;53202;50.976;18.216;2023-04-16T11:18:44;11.90;;;10.60;;
57313;SDS011;53202;50.976;18.216;2023-04-16T11:28:32;19.00;;;15.20;;
57313;SDS011;53202;50.976;18.216;2023-04-16T11:38:16;14.10;;;12.80;;
57313;SDS011;53202;50.976;18.216;2023-04-16T11:47:59;10.70;;;9.60;;
57313;SDS011;53202;50.976;18.216;2023-04-16T11:57:42;11.50;;;7.00;;
57313;SDS011;53202;50.976;18.216;2023-04-16T12:07:30;8.20;;;7.40;;
57313;SDS011;53202;50.976;18.216;2023-04-16T12:14:49;14.40;;;12.20;;
57313;SDS011;53202;50.976;18.216;2023-04-16T12:24:32;7.80;;;6.60;;
57313;SDS011;53202;50.976;18.216;2023-04-16T12:34:19;8.80;;;7.90;;
57313;SDS011;53202;50.976;18.216;2023-04-16T12:44:03;15.70;;;8.60;;
57313;SDS011;53202;50.976;18.216;2023-04-16T12:53:48;5.30;;;4.80;;
57313;SDS011;53202;50.976;18.216;2023-04-16T13:03:31;7.60;;;6.30;;
57313;SDS011;53202;50.976;18.216;2023-04-16T13:13:13;8.50;;;7.10;;
57313;SDS011;53202;50.976;18.216;2023-04-16T13:22:57;12.90;;;8.20;;
57313;SDS011;53202;50.976;18.216;2023-04-16T13:32:40;11.20;;;8.60;;
57313;SDS011;53202;50.976;18.216;2023-04-16T13:42:23;8.30;;;7.50;;
57313;SDS011;53202;50.976;18.216;2023-04-16T13:52:08;15.60;;;11.30;;
57313;SDS011;53202;50.976;18.216;2023-04-16T14:01:51;9.30;;;8.30;;
57313;SDS011;53202;50.976;18.216;2023-04-16T14:11:35;7.90;;;7.20;;
57313;SDS011;53202;50.976;18.216;2023-04-16T14:21:18;9.90;;;7.20;;
57313;SDS011;53202;50.976;18.216;2023-04-16T14:31:01;10.40;;;8.30;;
57313;SDS011;53202;50.976;18.216;2023-04-16T14:40:44;7.70;;;6.90;;
57313;SDS011;53202;50.976;18.216;2023-04-16T14:50:28;8.80;;;5.80;;
57313;SDS011;53202;50.976;18.216;2023-04-16T15:00:12;21.70;;;9.90;;
57313;SDS011;53202;50.976;18.216;2023-04-16T15:10:00;6.20;;;5.40;;
57313;SDS011;53202;50.976;18.216;2023-04-16T15:19:43;13.20;;;7.60;;
57313;SDS011;53202;50.976;18.216;2023-04-16T15:29:27;9.20;;;6.20;;
57313;SDS011;53202;50.976;18.216;2023-04-16T15:46:29;17.80;;;7.40;;
57313;SDS011;53202;50.976;18.216;2023-04-16T15:56:13;12.40;;;7.50;;
57313;SDS011;53202;50.976;18.216;2023-04-16T16:05:58;12.20;;;7.60;;
57313;SDS011;53202;50.976;18.216;2023-04-16T16:15:43;12.50;;;10.00;;
57313;SDS011;53202;50.976;18.216;2023-04-16T16:25:26;8.30;;;7.50;;
57313;SDS011;53202;50.976;18.216;2023-04-16T16:35:11;9.80;;;8.30;;
57313;SDS011;53202;50.976;18.216;2023-04-16T16:44:54;12.00;;;10.40;;
57313;SDS011;53202;50.976;18.216;2023-04-16T16:54:37;15.40;;;10.70;;
57313;SDS011;53202;50.976;18.216;2023-04-16T17:04:19;22.40;;;10.40;;
57313;SDS011;53202;50.976;18.216;2023-04-16T17:14:02;21.80;;;13.20;;
57313;SDS011;53202;50.976;18.216;2023-04-16T17:23:45;26.30;;;13.70;;
57313;SDS011;53202;50.976;18.216;2023-04-16T17:33:28;12.80;;;10.70;;
57313;SDS011;53202;50.976;18.216;2023-04-16T17:43:10;20.20;;;18.00;;
57313;SDS011;53202;50.976;18.216;2023-04-16T17:52:53;19.90;;;14.60;;
57313;SDS011;53202;50.976;18.216;2023-04-16T18:02:37;20.80;;;16.80;;
57313;SDS011;53202;50.976;18.216;2023-04-16T18:12:22;31.90;;;17.10;;
57313;SDS011;53202;50.976;18.216;2023-04-16T18:22:08;22.70;;;16.30;;
57313;SDS011;53202;50.976;18.216;2023-04-16T18:31:53;24.50;;;20.20;;
57313;SDS011;53202;50.976;18.216;2023-04-16T18:41:37;28.50;;;20.60;;
57313;SDS011;53202;50.976;18.216;2023-04-16T18:51:21;22.60;;;18.80;;
57313;SDS011;53202;50.976;18.216;2023-04-16T19:01:04;29.80;;;19.70;;
57313;SDS011;53202;50.976;18.216;2023-04-16T19:10:52;33.40;;;22.20;;
57313;SDS011;53202;50.976;18.216;2023-04-16T19:20:36;32.00;;;20.20;;
57313;SDS011;53202;50.976;18.216;2023-04-16T19:30:21;43.10;;;23.50;;
57313;SDS011;53202;50.976;18.216;2023-04-16T19:40:04;41.00;;;16.80;;
57313;SDS011;53202;50.976;18.216;2023-04-16T19:49:48;32.00;;;21.40;;
57313;SDS011;53202;50.976;18.216;2023-04-16T19:59:32;23.40;;;17.80;;
57313;SDS011;53202;50.976;18.216;2023-04-16T20:09:16;26.40;;;21.80;;
57313;SDS011;53202;50.976;18.216;2023-04-16T20:19:03;22.40;;;15.90;;
57313;SDS011;53202;50.976;18.216;2023-04-16T20:28:53;23.20;;;17.40;;
57313;SDS011;53202;50.976;18.216;2023-04-16T20:38:36;27.60;;;14.70;;
57313;SDS011;53202;50.976;18.216;2023-04-16T20:48:32;21.40;;;15.40;;
57313;SDS011;53202;50.976;18.216;2023-04-16T20:58:15;31.80;;;21.10;;
57313;SDS011;53202;50.976;18.216;2023-04-16T21:07:58;11.90;;;9.10;;
57313;SDS011;53202;50.976;18.216;2023-04-16T21:17:40;23.90;;;18.80;;
57313;SDS011;53202;50.976;18.216;2023-04-16T21:27:27;31.00;;;14.20;;
57313;SDS011;53202;50.976;18.216;2023-04-16T21:37:09;19.60;;;16.60;;
57313;SDS011;53202;50.976;18.216;2023-04-16T21:46:52;25.40;;;15.60;;
57313;SDS011;53202;50.976;18.216;2023-04-16T21:56:36;21.30;;;15.10;;
57313;SDS011;53202;50.976;18.216;2023-04-16T22:06:18;10.20;;;8.80;;
57313;SDS011;53202;50.976;18.216;2023-04-16T22:16:01;22.50;;;18.00;;
57313;SDS011;53202;50.976;18.216;2023-04-16T22:25:45;23.10;;;17.50;;
57313;SDS011;53202;50.976;18.216;2023-04-16T22:35:28;38.00;;;24.50;;
57313;SDS011;53202;50.976;18.216;2023-04-16T22:45:10;47.50;;;26.60;;
57313;SDS011;53202;50.976;18.216;2023-04-16T22:54:53;38.00;;;22.00;;
57313;SDS011;53202;50.976;18.216;2023-04-16T23:04:40;43.00;;;26.00;;
57313;SDS011;53202;50.976;18.216;2023-04-16T23:14:23;51.50;;;28.20;;
57313;SDS011;53202;50.976;18.216;2023-04-16T23:24:07;43.80;;;27.70;;
57313;SDS011;53202;50.976;18.216;2023-04-16T23:33:50;30.40;;;23.30;;
57313;SDS011;53202;50.976;18.216;2023-04-16T23:43:33;52.60;;;33.60;;
57313;SDS011;53202;50.976;18.216;2023-04-16T23:53:17;33.50;;;24.70;;
